createdAt,value
2017-05-31T00:00:27.270Z,1009.4
2017-05-31T00:01:07.840Z,1009.37
2017-05-31T00:01:48.433Z,1009.38
2017-05-31T00:02:29.014Z,1009.4
2017-05-31T00:03:09.605Z,1009.43
2017-05-31T00:03:50.183Z,1009.39
2017-05-31T00:04:30.764Z,1009.47
2017-05-31T00:05:11.345Z,1009.44
2017-05-31T00:05:51.921Z,1009.41
2017-05-31T00:06:32.511Z,1009.47
2017-05-31T00:07:13.123Z,1009.47
2017-05-31T00:07:53.698Z,1009.51
2017-05-31T00:08:34.277Z,1009.53
2017-05-31T00:09:14.861Z,1009.51
2017-05-31T00:09:55.451Z,1009.53
2017-05-31T00:10:36.050Z,1009.56
2017-05-31T00:11:16.624Z,1009.54
2017-05-31T00:11:57.218Z,1009.54
2017-05-31T00:12:37.798Z,1009.5
2017-05-31T00:13:18.406Z,1009.52
2017-05-31T00:13:58.985Z,1009.58
2017-05-31T00:14:39.589Z,1009.56
2017-05-31T00:15:20.175Z,1009.61
2017-05-31T00:16:00.750Z,1009.6
2017-05-31T00:16:41.326Z,1009.58
2017-05-31T00:17:21.907Z,1009.57
2017-05-31T00:18:02.481Z,1009.62
2017-05-31T00:18:43.054Z,1009.63
2017-05-31T00:19:23.642Z,1009.59
2017-05-31T00:20:04.222Z,1009.61
2017-05-31T00:20:44.802Z,1009.57
2017-05-31T00:21:25.377Z,1009.55
2017-05-31T00:22:05.976Z,1009.58
2017-05-31T00:22:46.561Z,1009.53
2017-05-31T00:23:27.150Z,1009.54
2017-05-31T00:24:07.729Z,1009.61
2017-05-31T00:24:48.307Z,1009.53
2017-05-31T00:25:28.890Z,1009.57
2017-05-31T00:26:09.487Z,1009.59
2017-05-31T00:26:50.073Z,1009.53
2017-05-31T00:27:30.659Z,1009.56
2017-05-31T00:28:11.245Z,1009.62
2017-05-31T00:28:51.824Z,1009.58
2017-05-31T00:29:32.412Z,1009.63
2017-05-31T00:30:12.995Z,1009.64
2017-05-31T00:30:53.588Z,1009.62
2017-05-31T00:31:34.169Z,1009.65
2017-05-31T00:32:14.755Z,1009.62
2017-05-31T00:32:55.332Z,1009.61
2017-05-31T00:33:35.917Z,1009.64
2017-05-31T00:34:16.486Z,1009.61
2017-05-31T00:34:57.069Z,1009.63
2017-05-31T00:35:37.645Z,1009.61
2017-05-31T00:36:18.224Z,1009.63
2017-05-31T00:36:58.815Z,1009.61
2017-05-31T00:37:39.404Z,1009.62
2017-05-31T00:38:19.985Z,1009.64
2017-05-31T00:39:00.571Z,1009.62
2017-05-31T00:39:41.174Z,1009.62
2017-05-31T00:40:21.760Z,1009.62
2017-05-31T00:41:02.335Z,1009.6
2017-05-31T00:41:42.920Z,1009.62
2017-05-31T00:42:23.503Z,1009.58
2017-05-31T00:43:04.104Z,1009.56
2017-05-31T00:43:44.681Z,1009.58
2017-05-31T00:44:25.265Z,1009.56
2017-05-31T00:45:05.846Z,1009.58
2017-05-31T00:45:46.413Z,1009.58
2017-05-31T00:46:27.008Z,1009.53
2017-05-31T00:47:07.585Z,1009.56
2017-05-31T00:47:48.162Z,1009.53
2017-05-31T00:48:28.749Z,1009.55
2017-05-31T00:49:09.335Z,1009.57
2017-05-31T00:49:49.908Z,1009.53
2017-05-31T00:50:30.501Z,1009.58
2017-05-31T00:51:11.099Z,1009.6
2017-05-31T00:51:51.679Z,1009.61
2017-05-31T00:52:32.274Z,1009.59
2017-05-31T00:53:12.856Z,1009.57
2017-05-31T00:53:53.450Z,1009.61
2017-05-31T00:54:34.043Z,1009.62
2017-05-31T00:55:14.631Z,1009.6
2017-05-31T00:55:55.213Z,1009.62
2017-05-31T00:56:35.820Z,1009.64
2017-05-31T00:57:16.406Z,1009.67
2017-05-31T00:57:57.002Z,1009.63
2017-05-31T00:58:37.577Z,1009.66
2017-05-31T00:59:18.172Z,1009.67
2017-05-31T00:59:58.758Z,1009.63
2017-05-31T01:00:39.336Z,1009.68
2017-05-31T01:01:19.911Z,1009.61
2017-05-31T01:02:00.496Z,1009.67
2017-05-31T01:02:41.085Z,1009.66
2017-05-31T01:03:21.673Z,1009.66
2017-05-31T01:04:02.267Z,1009.64
2017-05-31T01:04:42.849Z,1009.67
2017-05-31T01:05:23.427Z,1009.64
2017-05-31T01:06:04.011Z,1009.65
2017-05-31T01:06:44.586Z,1009.67
2017-05-31T01:07:25.172Z,1009.7
2017-05-31T01:08:05.752Z,1009.71
2017-05-31T01:08:46.357Z,1009.7
2017-05-31T01:09:26.944Z,1009.69
2017-05-31T01:10:07.523Z,1009.67
2017-05-31T01:10:48.110Z,1009.72
2017-05-31T01:11:28.695Z,1009.69
2017-05-31T01:12:09.316Z,1009.68
2017-05-31T01:12:49.884Z,1009.68
2017-05-31T01:13:30.468Z,1009.68
2017-05-31T01:14:11.071Z,1009.7
2017-05-31T01:14:51.656Z,1009.66
2017-05-31T01:15:32.243Z,1009.65
2017-05-31T01:16:12.830Z,1009.65
2017-05-31T01:16:53.409Z,1009.63
2017-05-31T01:17:33.990Z,1009.66
2017-05-31T01:18:14.609Z,1009.67
2017-05-31T01:18:55.192Z,1009.6
2017-05-31T01:19:35.783Z,1009.66
2017-05-31T01:20:16.363Z,1009.67
2017-05-31T01:20:56.956Z,1009.71
2017-05-31T01:21:37.535Z,1009.73
2017-05-31T01:22:18.130Z,1009.77
2017-05-31T01:22:58.705Z,1009.71
2017-05-31T01:23:39.287Z,1009.74
2017-05-31T01:24:19.868Z,1009.74
2017-05-31T01:25:00.521Z,1009.78
2017-05-31T01:25:41.094Z,1009.79
2017-05-31T01:26:21.678Z,1009.78
2017-05-31T01:27:02.252Z,1009.75
2017-05-31T01:27:42.830Z,1009.79
2017-05-31T01:28:23.418Z,1009.79
2017-05-31T01:29:04.014Z,1009.82
2017-05-31T01:29:44.599Z,1009.79
2017-05-31T01:30:25.182Z,1009.77
2017-05-31T01:31:05.769Z,1009.87
2017-05-31T01:31:46.359Z,1009.81
2017-05-31T01:32:26.942Z,1009.83
2017-05-31T01:33:07.527Z,1009.82
2017-05-31T01:33:48.115Z,1009.83
2017-05-31T01:34:28.698Z,1009.87
2017-05-31T01:35:09.286Z,1009.81
2017-05-31T01:35:49.892Z,1009.79
2017-05-31T01:36:30.483Z,1009.78
2017-05-31T01:37:11.068Z,1009.77
2017-05-31T01:37:51.658Z,1009.81
2017-05-31T01:38:32.241Z,1009.81
2017-05-31T01:39:12.822Z,1009.79
2017-05-31T01:39:53.403Z,1009.84
2017-05-31T01:40:33.993Z,1009.83
2017-05-31T01:41:14.580Z,1009.8
2017-05-31T01:41:55.177Z,1009.81
2017-05-31T01:42:35.760Z,1009.81
2017-05-31T01:43:16.341Z,1009.79
2017-05-31T01:43:56.932Z,1009.8
2017-05-31T01:44:37.514Z,1009.85
2017-05-31T01:45:18.096Z,1009.8
2017-05-31T01:45:58.675Z,1009.83
2017-05-31T01:46:39.253Z,1009.84
2017-05-31T01:47:19.834Z,1009.85
2017-05-31T01:48:00.417Z,1009.83
2017-05-31T01:48:41.005Z,1009.84
2017-05-31T01:49:21.591Z,1009.83
2017-05-31T01:50:02.167Z,1009.86
2017-05-31T01:50:42.753Z,1009.85
2017-05-31T01:51:23.333Z,1009.87
2017-05-31T01:52:03.911Z,1009.89
2017-05-31T01:52:44.497Z,1009.91
2017-05-31T01:53:25.124Z,1009.91
2017-05-31T01:54:05.658Z,1009.94
2017-05-31T01:54:46.252Z,1009.98
2017-05-31T01:55:26.823Z,1009.98
2017-05-31T01:56:07.410Z,1010
2017-05-31T01:56:48.009Z,1009.98
2017-05-31T01:57:28.618Z,1010
2017-05-31T01:58:09.199Z,1009.99
2017-05-31T01:58:49.783Z,1010
2017-05-31T01:59:30.367Z,1010.01
2017-05-31T02:00:10.946Z,1010.01
2017-05-31T02:00:51.527Z,1010.07
2017-05-31T02:01:32.119Z,1010.07
2017-05-31T02:02:12.705Z,1010.1
2017-05-31T02:02:53.288Z,1010.16
2017-05-31T02:03:34.073Z,1010.11
2017-05-31T02:04:14.662Z,1010.12
2017-05-31T02:04:55.247Z,1010.08
2017-05-31T02:05:35.847Z,1010.06
2017-05-31T02:06:16.449Z,1010.06
2017-05-31T02:06:57.056Z,1010.05
2017-05-31T02:07:37.627Z,1010.02
2017-05-31T02:08:18.230Z,1010.07
2017-05-31T02:08:58.811Z,1010.04
2017-05-31T02:09:39.412Z,1010.02
2017-05-31T02:10:19.995Z,1010.05
2017-05-31T02:11:00.598Z,1010.04
2017-05-31T02:11:41.195Z,1010.04
2017-05-31T02:12:21.777Z,1010.03
2017-05-31T02:13:02.366Z,1010.01
2017-05-31T02:13:42.959Z,1010.04
2017-05-31T02:14:23.558Z,1010.06
2017-05-31T02:15:04.160Z,1010.06
2017-05-31T02:15:44.750Z,1010.09
2017-05-31T02:16:25.335Z,1010.11
2017-05-31T02:17:05.930Z,1010.12
2017-05-31T02:17:46.514Z,1010.1
2017-05-31T02:18:27.092Z,1010.13
2017-05-31T02:19:07.695Z,1010.11
2017-05-31T02:19:48.271Z,1010.11
2017-05-31T02:20:28.860Z,1010.11
2017-05-31T02:21:09.436Z,1010.12
2017-05-31T02:21:50.014Z,1010.11
2017-05-31T02:22:30.610Z,1010.12
2017-05-31T02:23:11.213Z,1010.12
2017-05-31T02:23:51.787Z,1010.15
2017-05-31T02:24:32.412Z,1010.13
2017-05-31T02:25:13.005Z,1010.11
2017-05-31T02:25:53.595Z,1010.12
2017-05-31T02:26:34.226Z,1010.11
2017-05-31T02:27:14.813Z,1010.16
2017-05-31T02:27:55.394Z,1010.15
2017-05-31T02:28:35.972Z,1010.16
2017-05-31T02:29:16.583Z,1010.16
2017-05-31T02:29:57.162Z,1010.14
2017-05-31T02:30:37.743Z,1010.15
2017-05-31T02:31:18.349Z,1010.18
2017-05-31T02:31:58.916Z,1010.18
2017-05-31T02:32:39.506Z,1010.12
2017-05-31T02:33:20.099Z,1010.13
2017-05-31T02:34:00.680Z,1010.17
2017-05-31T02:34:41.263Z,1010.16
2017-05-31T02:35:21.842Z,1010.12
2017-05-31T02:36:02.433Z,1010.19
2017-05-31T02:36:43.021Z,1010.17
2017-05-31T02:37:23.608Z,1010.18
2017-05-31T02:38:04.180Z,1010.18
2017-05-31T02:38:44.771Z,1010.22
2017-05-31T02:39:25.363Z,1010.16
2017-05-31T02:40:05.950Z,1010.21
2017-05-31T02:40:46.537Z,1010.22
2017-05-31T02:41:27.960Z,1010.18
2017-05-31T02:42:11.793Z,1010.23
2017-05-31T02:42:54.113Z,1010.21
2017-05-31T02:43:37.196Z,1010.22
2017-05-31T02:44:24.561Z,1010.22
2017-05-31T02:45:07.785Z,1010.26
2017-05-31T02:45:50.067Z,1010.22
2017-05-31T02:46:33.865Z,1010.26
2017-05-31T02:47:16.002Z,1010.26
2017-05-31T02:47:58.673Z,1010.23
2017-05-31T02:48:47.195Z,1010.25
2017-05-31T02:49:45.566Z,1010.21
2017-05-31T02:50:31.610Z,1010.27
2017-05-31T02:51:13.694Z,1010.24
2017-05-31T02:51:56.137Z,1010.22
2017-05-31T02:52:38.194Z,1010.23
2017-05-31T02:53:19.746Z,1010.25
2017-05-31T02:54:01.190Z,1010.23
2017-05-31T02:54:43.145Z,1010.27
2017-05-31T02:55:24.857Z,1010.28
2017-05-31T02:56:08.312Z,1010.31
2017-05-31T02:56:51.501Z,1010.31
2017-05-31T02:57:33.108Z,1010.29
2017-05-31T02:58:15.233Z,1010.27
2017-05-31T02:58:57.191Z,1010.34
2017-05-31T02:59:39.491Z,1010.32
2017-05-31T03:00:20.447Z,1010.35
2017-05-31T03:01:01.027Z,1010.4
2017-05-31T03:01:41.608Z,1010.41
2017-05-31T03:02:22.199Z,1010.38
2017-05-31T03:03:02.803Z,1010.38
2017-05-31T03:03:43.389Z,1010.37
2017-05-31T03:04:23.963Z,1010.33
2017-05-31T03:05:04.547Z,1010.37
2017-05-31T03:05:45.126Z,1010.4
2017-05-31T03:06:25.718Z,1010.42
2017-05-31T03:07:06.297Z,1010.39
2017-05-31T03:07:46.882Z,1010.38
2017-05-31T03:08:27.476Z,1010.41
2017-05-31T03:09:08.056Z,1010.42
2017-05-31T03:09:48.667Z,1010.41
2017-05-31T03:10:29.242Z,1010.43
2017-05-31T03:11:09.846Z,1010.42
2017-05-31T03:11:50.419Z,1010.4
2017-05-31T03:12:31.013Z,1010.43
2017-05-31T03:13:11.613Z,1010.42
2017-05-31T03:13:52.199Z,1010.48
2017-05-31T03:14:32.790Z,1010.43
2017-05-31T03:15:13.369Z,1010.44
2017-05-31T03:15:53.979Z,1010.41
2017-05-31T03:16:34.576Z,1010.41
2017-05-31T03:17:15.157Z,1010.47
2017-05-31T03:17:55.753Z,1010.48
2017-05-31T03:18:36.345Z,1010.41
2017-05-31T03:19:16.922Z,1010.48
2017-05-31T03:19:57.521Z,1010.45
2017-05-31T03:20:38.111Z,1010.47
2017-05-31T03:21:18.727Z,1010.42
2017-05-31T03:21:59.317Z,1010.51
2017-05-31T03:22:39.912Z,1010.45
2017-05-31T03:23:20.504Z,1010.49
2017-05-31T03:24:01.083Z,1010.47
2017-05-31T03:24:41.682Z,1010.51
2017-05-31T03:25:22.289Z,1010.46
2017-05-31T03:26:02.879Z,1010.49
2017-05-31T03:26:43.547Z,1010.49
2017-05-31T03:27:24.089Z,1010.5
2017-05-31T03:28:04.663Z,1010.53
2017-05-31T03:28:45.247Z,1010.59
2017-05-31T03:29:25.815Z,1010.55
2017-05-31T03:30:06.403Z,1010.5
2017-05-31T03:30:47.003Z,1010.49
2017-05-31T03:31:27.606Z,1010.46
2017-05-31T03:32:08.198Z,1010.54
2017-05-31T03:32:48.781Z,1010.57
2017-05-31T03:33:29.443Z,1010.59
2017-05-31T03:34:10.044Z,1010.62
2017-05-31T03:34:50.637Z,1010.59
2017-05-31T03:35:31.218Z,1010.58
2017-05-31T03:36:11.806Z,1010.63
2017-05-31T03:36:52.394Z,1010.67
2017-05-31T03:37:32.965Z,1010.66
2017-05-31T03:38:13.543Z,1010.65
2017-05-31T03:38:54.128Z,1010.65
2017-05-31T03:39:34.708Z,1010.68
2017-05-31T03:40:15.287Z,1010.67
2017-05-31T03:40:55.880Z,1010.7
2017-05-31T03:41:36.469Z,1010.64
2017-05-31T03:42:17.070Z,1010.71
2017-05-31T03:42:57.660Z,1010.73
2017-05-31T03:43:38.233Z,1010.74
2017-05-31T03:44:18.867Z,1010.75
2017-05-31T03:44:59.453Z,1010.75
2017-05-31T03:45:40.042Z,1010.72
2017-05-31T03:46:20.631Z,1010.75
2017-05-31T03:47:01.219Z,1010.77
2017-05-31T03:47:41.794Z,1010.78
2017-05-31T03:48:22.372Z,1010.8
2017-05-31T03:49:02.962Z,1010.74
2017-05-31T03:49:43.542Z,1010.8
2017-05-31T03:50:24.140Z,1010.8
2017-05-31T03:51:04.746Z,1010.83
2017-05-31T03:51:45.349Z,1010.82
2017-05-31T03:52:25.939Z,1010.81
2017-05-31T03:53:06.518Z,1010.82
2017-05-31T03:53:47.130Z,1010.78
2017-05-31T03:54:27.720Z,1010.87
2017-05-31T03:55:08.296Z,1010.9
2017-05-31T03:55:59.154Z,1010.87
2017-05-31T03:57:58.208Z,1010.89
2017-05-31T03:58:38.788Z,1010.89
2017-05-31T03:59:19.378Z,1010.86
2017-05-31T04:00:28.466Z,1010.89
2017-05-31T04:01:58.449Z,1010.93
2017-05-31T04:02:39.039Z,1010.89
2017-05-31T04:03:19.612Z,1010.88
2017-05-31T04:04:00.195Z,1010.91
2017-05-31T04:04:40.825Z,1010.96
2017-05-31T04:05:21.413Z,1010.91
2017-05-31T04:06:02.002Z,1010.94
2017-05-31T04:06:42.581Z,1010.99
2017-05-31T04:07:23.160Z,1011.01
2017-05-31T04:08:03.753Z,1010.96
2017-05-31T04:08:44.350Z,1010.96
2017-05-31T04:09:24.935Z,1010.95
2017-05-31T04:10:05.505Z,1011.05
2017-05-31T04:10:46.102Z,1011.06
2017-05-31T04:11:26.698Z,1011.06
2017-05-31T04:12:07.289Z,1011.07
2017-05-31T04:12:47.870Z,1011.12
2017-05-31T04:13:28.463Z,1011.08
2017-05-31T04:14:09.055Z,1011.04
2017-05-31T04:14:49.642Z,1011.11
2017-05-31T04:15:30.216Z,1011.14
2017-05-31T04:16:10.783Z,1011.09
2017-05-31T04:16:51.383Z,1011.09
2017-05-31T04:17:31.973Z,1011.12
2017-05-31T04:18:12.541Z,1011.13
2017-05-31T04:18:53.132Z,1011.14
2017-05-31T04:19:33.712Z,1011.12
2017-05-31T04:20:14.282Z,1011.18
2017-05-31T04:20:54.871Z,1011.24
2017-05-31T04:21:35.454Z,1011.2
2017-05-31T04:22:16.038Z,1011.19
2017-05-31T04:22:56.657Z,1011.19
2017-05-31T04:23:37.250Z,1011.2
2017-05-31T04:24:17.826Z,1011.27
2017-05-31T04:24:58.404Z,1011.25
2017-05-31T04:25:38.987Z,1011.24
2017-05-31T04:26:19.574Z,1011.27
2017-05-31T04:27:00.158Z,1011.28
2017-05-31T04:27:40.753Z,1011.27
2017-05-31T04:28:21.337Z,1011.28
2017-05-31T04:29:01.923Z,1011.28
2017-05-31T04:29:42.499Z,1011.33
2017-05-31T04:30:23.082Z,1011.3
2017-05-31T04:31:03.671Z,1011.37
2017-05-31T04:31:44.286Z,1011.37
2017-05-31T04:32:24.867Z,1011.35
2017-05-31T04:33:05.457Z,1011.33
2017-05-31T04:33:46.049Z,1011.34
2017-05-31T04:34:26.668Z,1011.35
2017-05-31T04:35:07.248Z,1011.36
2017-05-31T04:35:47.841Z,1011.36
2017-05-31T04:36:28.435Z,1011.44
2017-05-31T04:37:09.021Z,1011.37
2017-05-31T04:37:49.600Z,1011.38
2017-05-31T04:38:30.188Z,1011.4
2017-05-31T04:39:10.777Z,1011.41
2017-05-31T04:39:51.353Z,1011.41
2017-05-31T04:40:32.000Z,1011.46
2017-05-31T04:41:12.583Z,1011.44
2017-05-31T04:41:53.174Z,1011.42
2017-05-31T04:42:33.773Z,1011.46
2017-05-31T04:43:14.364Z,1011.39
2017-05-31T04:43:54.941Z,1011.39
2017-05-31T04:44:35.540Z,1011.46
2017-05-31T04:45:16.122Z,1011.4
2017-05-31T04:45:56.721Z,1011.46
2017-05-31T04:46:37.297Z,1011.46
2017-05-31T04:47:17.931Z,1011.49
2017-05-31T04:47:58.521Z,1011.45
2017-05-31T04:48:39.098Z,1011.49
2017-05-31T04:49:19.704Z,1011.47
2017-05-31T04:50:00.283Z,1011.53
2017-05-31T04:50:40.870Z,1011.59
2017-05-31T04:51:21.461Z,1011.52
2017-05-31T04:52:02.060Z,1011.52
2017-05-31T04:52:42.644Z,1011.51
2017-05-31T04:53:23.223Z,1011.53
2017-05-31T04:54:03.808Z,1011.54
2017-05-31T04:54:44.414Z,1011.49
2017-05-31T04:55:25.006Z,1011.53
2017-05-31T04:56:05.576Z,1011.51
2017-05-31T04:56:46.160Z,1011.54
2017-05-31T04:57:26.743Z,1011.56
2017-05-31T04:58:07.327Z,1011.53
2017-05-31T04:58:47.911Z,1011.58
2017-05-31T04:59:28.493Z,1011.56
2017-05-31T05:00:09.073Z,1011.58
2017-05-31T05:00:49.649Z,1011.53
2017-05-31T05:01:30.235Z,1011.63
2017-05-31T05:02:10.813Z,1011.65
2017-05-31T05:02:51.399Z,1011.63
2017-05-31T05:03:31.975Z,1011.64
2017-05-31T05:04:12.596Z,1011.63
2017-05-31T05:04:53.166Z,1011.7
2017-05-31T05:05:33.748Z,1011.7
2017-05-31T05:06:14.324Z,1011.68
2017-05-31T05:06:54.920Z,1011.79
2017-05-31T05:07:35.515Z,1011.73
2017-05-31T05:08:16.093Z,1011.73
2017-05-31T05:08:56.681Z,1011.75
2017-05-31T05:09:37.283Z,1011.8
2017-05-31T05:10:17.880Z,1011.8
2017-05-31T05:10:58.451Z,1011.84
2017-05-31T05:11:39.031Z,1011.77
2017-05-31T05:12:19.618Z,1011.83
2017-05-31T05:13:00.210Z,1011.84
2017-05-31T05:13:40.796Z,1011.89
2017-05-31T05:14:21.371Z,1011.83
2017-05-31T05:15:02.033Z,1011.85
2017-05-31T05:15:42.623Z,1011.87
2017-05-31T05:16:23.219Z,1011.86
2017-05-31T05:17:03.790Z,1011.89
2017-05-31T05:17:44.380Z,1011.89
2017-05-31T05:18:24.983Z,1011.89
2017-05-31T05:19:05.572Z,1011.92
2017-05-31T05:19:46.155Z,1011.93
2017-05-31T05:20:26.749Z,1011.88
2017-05-31T05:21:07.326Z,1011.89
2017-05-31T05:21:47.908Z,1011.86
2017-05-31T05:22:28.501Z,1011.87
2017-05-31T05:23:09.099Z,1011.89
2017-05-31T05:23:49.687Z,1011.94
2017-05-31T05:24:30.275Z,1011.92
2017-05-31T05:25:10.849Z,1011.91
2017-05-31T05:25:51.448Z,1011.95
2017-05-31T05:26:32.055Z,1011.93
2017-05-31T05:27:12.647Z,1011.91
2017-05-31T05:27:53.232Z,1011.95
2017-05-31T05:28:33.963Z,1011.99
2017-05-31T05:29:14.547Z,1012.02
2017-05-31T05:29:55.132Z,1012.03
2017-05-31T05:30:35.807Z,1012.06
2017-05-31T05:31:16.397Z,1012.02
2017-05-31T05:31:57.004Z,1012.08
2017-05-31T05:32:37.593Z,1012
2017-05-31T05:33:18.255Z,1012.11
2017-05-31T05:33:59.032Z,1012.19
2017-05-31T05:34:39.682Z,1012.14
2017-05-31T05:35:20.296Z,1012.23
2017-05-31T05:36:00.898Z,1012.21
2017-05-31T05:36:41.513Z,1012.27
2017-05-31T05:37:22.140Z,1012.33
2017-05-31T05:38:02.762Z,1012.26
2017-05-31T05:38:43.354Z,1012.42
2017-05-31T05:39:23.949Z,1012.4
2017-05-31T05:40:04.560Z,1012.24
2017-05-31T05:40:45.170Z,1012.17
2017-05-31T05:41:25.759Z,1012.16
2017-05-31T05:42:06.394Z,1012.15
2017-05-31T05:42:47.036Z,1012.2
2017-05-31T05:43:27.638Z,1012.14
2017-05-31T05:44:08.250Z,1012.11
2017-05-31T05:44:48.851Z,1012.14
2017-05-31T05:45:29.435Z,1012.67
2017-05-31T05:46:10.052Z,1012.57
2017-05-31T05:46:50.684Z,1012.72
2017-05-31T05:47:31.290Z,1012.78
2017-05-31T05:48:11.888Z,1012.74
2017-05-31T05:48:52.481Z,1012.51
2017-05-31T05:49:33.090Z,1012.32
2017-05-31T05:50:13.698Z,1013.03
2017-05-31T05:50:54.320Z,1012.41
2017-05-31T05:51:34.901Z,1013.17
2017-05-31T05:52:15.511Z,1012.4
2017-05-31T05:52:56.099Z,1013.23
2017-05-31T05:53:36.705Z,1013.14
2017-05-31T05:54:17.303Z,1013.49
2017-05-31T05:54:57.900Z,1013.53
2017-05-31T05:55:39.775Z,1013.49
2017-05-31T05:56:21.311Z,1013.59
2017-05-31T05:57:02.924Z,1013.4
2017-05-31T05:57:43.516Z,1013.56
2017-05-31T05:58:24.113Z,1013.64
2017-05-31T05:59:04.844Z,1013.57
2017-05-31T05:59:45.610Z,1013.58
2017-05-31T06:00:26.280Z,1013.48
2017-05-31T06:01:07.190Z,1013.53
2017-05-31T06:01:47.822Z,1013.39
2017-05-31T06:02:28.412Z,1013.41
2017-05-31T06:03:09.092Z,1013.35
2017-05-31T06:03:49.694Z,1013.26
2017-05-31T06:04:30.369Z,1013.27
2017-05-31T06:05:11.012Z,1013.26
2017-05-31T06:05:51.597Z,1013.19
2017-05-31T06:06:33.190Z,1013.23
2017-05-31T06:07:13.789Z,1013.17
2017-05-31T06:07:54.430Z,1013.13
2017-05-31T06:08:35.015Z,1013.13
2017-05-31T06:09:15.993Z,1013.18
2017-05-31T06:09:56.604Z,1013.22
2017-05-31T06:10:37.198Z,1012.47
2017-05-31T06:11:17.797Z,1012.49
2017-05-31T06:11:58.535Z,1012.32
2017-05-31T06:12:39.133Z,1013.84
2017-05-31T06:13:19.758Z,1013.93
2017-05-31T06:14:00.364Z,1013.81
2017-05-31T06:14:40.957Z,1013.87
2017-05-31T06:15:21.579Z,1013.03
2017-05-31T06:16:07.537Z,1014
2017-05-31T06:16:49.223Z,1014.01
2017-05-31T06:17:29.810Z,1013.84
2017-05-31T06:18:10.402Z,1013.08
2017-05-31T06:18:50.980Z,1013.14
2017-05-31T06:19:31.578Z,1013.63
2017-05-31T06:20:15.200Z,1013.32
2017-05-31T06:20:55.794Z,1013.7
2017-05-31T06:21:36.389Z,1013.86
2017-05-31T06:22:16.990Z,1014.02
2017-05-31T06:22:57.573Z,1013.06
2017-05-31T06:23:38.158Z,1013.89
2017-05-31T06:24:18.751Z,1013.33
2017-05-31T06:24:59.350Z,1012.87
2017-05-31T06:25:41.107Z,1014.13
2017-05-31T06:26:21.689Z,1013.44
2017-05-31T06:27:02.277Z,1014.38
2017-05-31T06:27:42.888Z,1014.51
2017-05-31T06:28:23.489Z,1014.2
2017-05-31T06:29:04.094Z,1014.27
2017-05-31T06:29:45.876Z,1014.14
2017-05-31T06:30:26.500Z,1013.54
2017-05-31T06:31:07.144Z,1014.47
2017-05-31T06:31:47.727Z,1014.58
2017-05-31T06:32:28.318Z,1014.79
2017-05-31T06:33:08.932Z,1014.97
2017-05-31T06:33:49.524Z,1014.21
2017-05-31T06:34:30.121Z,1014.8
2017-05-31T06:35:10.711Z,1014.76
2017-05-31T06:35:51.337Z,1014.06
2017-05-31T06:36:31.921Z,1013.61
2017-05-31T06:37:12.509Z,1013.27
2017-05-31T06:37:53.109Z,1013.05
2017-05-31T06:38:33.708Z,1012.77
2017-05-31T06:39:14.534Z,1012.63
2017-05-31T06:39:58.843Z,1013.04
2017-05-31T06:40:42.536Z,1012.77
2017-05-31T06:41:23.119Z,1012.69
2017-05-31T06:42:05.435Z,1012.72
2017-05-31T06:42:49.404Z,1012.9
2017-05-31T06:43:30.241Z,1012.99
2017-05-31T06:44:16.702Z,1012.83
2017-05-31T06:45:06.058Z,1012.73
2017-05-31T06:46:09.337Z,1013.38
2017-05-31T06:46:51.094Z,1013.68
2017-05-31T06:47:33.612Z,1012.83
2017-05-31T06:48:14.203Z,1012.8
2017-05-31T06:48:54.787Z,1012.82
2017-05-31T06:49:35.379Z,1014.09
2017-05-31T06:50:15.987Z,1012.8
2017-05-31T06:50:56.584Z,1012.8
2017-05-31T06:51:37.168Z,1012.84
2017-05-31T06:52:17.770Z,1013.13
2017-05-31T06:52:58.370Z,1013.1
2017-05-31T06:53:38.963Z,1013.01
2017-05-31T06:54:19.574Z,1013.03
2017-05-31T06:55:00.187Z,1013.03
2017-05-31T06:55:40.778Z,1012.86
2017-05-31T06:56:21.361Z,1012.86
2017-05-31T06:57:01.946Z,1012.96
2017-05-31T06:57:42.529Z,1012.94
2017-05-31T06:58:23.116Z,1012.93
2017-05-31T06:59:03.756Z,1012.9
2017-05-31T06:59:44.359Z,1013.01
2017-05-31T07:00:24.951Z,1013
2017-05-31T07:01:10.595Z,1012.84
2017-05-31T07:01:52.957Z,1013.02
2017-05-31T07:02:33.553Z,1013.01
2017-05-31T07:03:14.139Z,1012.88
2017-05-31T07:03:54.728Z,1013.05
2017-05-31T07:04:35.314Z,1013.09
2017-05-31T07:05:15.917Z,1012.92
2017-05-31T07:05:56.514Z,1013.15
2017-05-31T07:06:37.121Z,1012.89
2017-05-31T07:07:17.712Z,1012.87
2017-05-31T07:07:59.444Z,1013.1
2017-05-31T07:08:41.895Z,1012.92
2017-05-31T07:09:22.490Z,1012.89
2017-05-31T07:10:05.902Z,1013.2
2017-05-31T07:10:48.553Z,1013.12
2017-05-31T07:11:32.550Z,1013.07
2017-05-31T07:12:14.594Z,1013.07
2017-05-31T07:12:59.068Z,1013.04
2017-05-31T07:13:40.039Z,1013.1
2017-05-31T07:14:20.637Z,1013.11
2017-05-31T07:15:02.484Z,1013.09
2017-05-31T07:15:47.593Z,1013.13
2017-05-31T07:16:28.211Z,1013.2
2017-05-31T07:17:08.796Z,1013.26
2017-05-31T07:17:49.386Z,1013.07
2017-05-31T07:18:29.971Z,1013.05
2017-05-31T07:19:10.602Z,1013.33
2017-05-31T07:19:51.222Z,1013.18
2017-05-31T07:20:31.808Z,1013.17
2017-05-31T07:21:12.407Z,1013
2017-05-31T07:21:54.645Z,1012.99
2017-05-31T07:22:35.284Z,1012.91
2017-05-31T07:23:15.913Z,1013
2017-05-31T07:23:56.512Z,1013.06
2017-05-31T07:24:37.172Z,1012.99
2017-05-31T07:25:17.701Z,1013.08
2017-05-31T07:25:58.294Z,1012.98
2017-05-31T07:26:44.166Z,1012.98
2017-05-31T07:27:26.475Z,1013
2017-05-31T07:28:07.122Z,1012.99
2017-05-31T07:28:47.765Z,1013.01
2017-05-31T07:29:29.058Z,1013.02
2017-05-31T07:30:12.634Z,1013.07
2017-05-31T07:30:53.217Z,1013.08
2017-05-31T07:31:33.818Z,1013.07
2017-05-31T07:32:14.406Z,1013.09
2017-05-31T07:32:54.995Z,1013.07
2017-05-31T07:33:35.577Z,1013.12
2017-05-31T07:34:16.159Z,1013.13
2017-05-31T07:34:56.755Z,1013.15
2017-05-31T07:35:43.438Z,1013.14
2017-05-31T07:36:24.027Z,1013.1
2017-05-31T07:37:04.611Z,1013.15
2017-05-31T07:37:45.214Z,1013.11
2017-05-31T07:38:29.867Z,1013.08
2017-05-31T07:39:14.670Z,1013.35
2017-05-31T07:39:55.314Z,1013.21
2017-05-31T07:40:35.932Z,1013.31
2017-05-31T07:41:16.525Z,1013.18
2017-05-31T07:41:57.222Z,1013.18
2017-05-31T07:42:40.378Z,1013.18
2017-05-31T07:43:22.356Z,1013.26
2017-05-31T07:44:02.951Z,1013.25
2017-05-31T07:44:43.542Z,1013.23
2017-05-31T07:45:24.131Z,1013.23
2017-05-31T07:46:04.712Z,1013.18
2017-05-31T07:46:46.443Z,1013.16
2017-05-31T07:47:27.035Z,1013.21
2017-05-31T07:48:07.664Z,1013.16
2017-05-31T07:48:50.972Z,1013.21
2017-05-31T07:49:31.564Z,1013.19
2017-05-31T07:50:12.143Z,1013.17
2017-05-31T07:50:52.718Z,1013.1
2017-05-31T07:51:33.304Z,1013.34
2017-05-31T07:52:13.965Z,1013.33
2017-05-31T07:52:58.356Z,1013.27
2017-05-31T07:53:38.945Z,1013.27
2017-05-31T07:54:19.574Z,1013.23
2017-05-31T07:55:00.245Z,1013.22
2017-05-31T07:55:40.828Z,1013.25
2017-05-31T07:56:21.566Z,1013.26
2017-05-31T07:57:02.161Z,1013.18
2017-05-31T07:57:42.773Z,1013.21
2017-05-31T07:58:23.379Z,1013.22
2017-05-31T07:59:03.965Z,1013.16
2017-05-31T07:59:44.563Z,1013.17
2017-05-31T08:00:25.526Z,1013.17
2017-05-31T08:01:06.123Z,1013.11
2017-05-31T08:01:46.708Z,1013.11
2017-05-31T08:02:27.309Z,1013.12
2017-05-31T08:03:07.906Z,1013.17
2017-05-31T08:03:48.490Z,1013.2
2017-05-31T08:04:29.087Z,1013.14
2017-05-31T08:05:09.684Z,1013.22
2017-05-31T08:05:51.000Z,1013.1
2017-05-31T08:06:31.592Z,1013.14
2017-05-31T08:07:12.180Z,1013.15
2017-05-31T08:07:52.751Z,1013.13
2017-05-31T08:08:35.767Z,1013.12
2017-05-31T08:09:21.131Z,1013.14
2017-05-31T08:10:04.069Z,1013.22
2017-05-31T08:10:44.660Z,1013.17
2017-05-31T08:11:25.268Z,1013.1
2017-05-31T08:12:06.052Z,1013.14
2017-05-31T08:12:46.644Z,1013.17
2017-05-31T08:13:27.236Z,1013.16
2017-05-31T08:14:07.828Z,1013.1
2017-05-31T08:14:48.423Z,1013.15
2017-05-31T08:15:29.011Z,1013.1
2017-05-31T08:16:09.606Z,1013.13
2017-05-31T08:16:50.187Z,1013.19
2017-05-31T08:17:30.767Z,1013.14
2017-05-31T08:18:11.360Z,1013.14
2017-05-31T08:18:51.949Z,1013.15
2017-05-31T08:19:32.582Z,1013.12